Startpagina
METAR-TAF:

METAR-TAF

Vliegvelden :

Luchthaven Houari Boumedienne

Algiers, Algerije

breedte: 36-43N, lengte: 003-15E, hoogte: 25 m

Actueel weer

Dit bericht is 35 minuten geleden gemaakt, om 21:30 UTC
Wind 4 kt uit het oostzuidoosten
Temperatuur 24°C
Vochtigheid 78%
Druk 1019 hPa
Zicht 10 km of meer
Weinig wolken op 2000 ft

METAR: DAAG 182130Z 11004KT 9999 FEW020 24/20 Q1019

Tijdstip: 23:05 (22:05 UTC)

Verwachting

Dit bericht is 5 uur en het 5 minuten geleden gemaakt, om 17:00 UTC
Verwachting geldig van 18 om 18 UTC tot 19 om 18 UTC
Wind 10 kt uit het oostnoordoosten
Zicht 10 km of meer
Weinig wolken op 2600 ft
Tijdelijke
van 18 om 18 UTC tot 18 om 22 UTC
Weinig wolken op 2300 ft, Stapelwolken.
Wijzigt naar
van 18 om 20 UTC tot 18 om 23 UTC
Wind 2 kt uit variabele richting
Wijzigt naar
van 19 om 08 UTC tot 19 om 10 UTC
Wind 10 kt uit het noordoosten

TAF: DAAG 181700Z 1818/1918 06010KT 9999 FEW026 TEMPO 1818/1822 FEW023TCU BECMG 1820/1823 VRB02KT BECMG 1908/1910 04010KT

Waarnemingen en weersverwachtingen van meer dan 4000 vliegvelden (METAR en TAF).

De beschikbare stations zijn de gele en rode punten op de kaart.

Ga met uw muis naar het station om de naam te zien.

Klik dan om waarnemingen en weersverwachtingen te zien.

kaart wijzigen: klik op de groene knoppen met een zwart kruis om in te zoomen, op de groene knop met een streepje om uit te zoomen of op de groene pijlen voor aangrenzende kaarten.


METAR-TAF: